Time;durP1;ratioP1;P1;durP2;ratioP2;P2;SDS_P1;SDS_P2;PMS_P1;PMS_P2;Temp;Humidity;BMP_temperature;BMP_pressure;BME280_temperature;BME280_humidity;BME280_pressure;Samples;Min_cycle;Max_cycle;Signal;HPM_P1;HPM_P2
2022/08/01 00:01:47;0.00;0.00;0.62;0.00;0.00;0.62;;;;;25.50;1.00;;;;;;2266300;61;1748;-82
2022/08/01 00:04:14;0.00;0.00;0.62;0.00;0.00;0.62;;;;;25.60;1.00;;;;;;2265607;61;1268;-82
2022/08/01 00:06:41;0.00;0.00;0.62;0.00;0.00;0.62;;;;;25.80;1.00;;;;;;2268894;61;1227;-82
2022/08/01 00:09:08;0.00;0.00;0.62;0.00;0.00;0.62;;;;;25.90;1.00;;;;;;2272775;61;1223;-82
2022/08/01 00:11:37;0.00;0.00;0.62;0.00;0.00;0.62;;;;;26.00;1.00;;;;;;2270019;61;1943;-82
2022/08/01 00:14:04;291181.00;0.97;502.76;71513.00;0.24;124.37;;;;;26.00;1.00;;;;;;2266339;61;1277;-82
2022/08/01 00:16:31;0.00;0.00;0.62;0.00;0.00;0.62;;;;;26.00;1.00;;;;;;2266322;61;1162;-83
2022/08/01 00:18:58;70630.00;0.24;122.85;0.00;0.00;0.62;;;;;25.80;1.00;;;;;;2266075;61;1161;-82
2022/08/01 00:21:24;52960.00;0.18;92.30;0.00;0.00;0.62;;;;;25.90;1.00;;;;;;2266096;61;1241;-82
2022/08/01 00:23:51;0.00;0.00;0.62;0.00;0.00;0.62;;;;;25.80;1.00;;;;;;2266049;61;1401;-83
2022/08/01 00:26:18;0.00;0.00;0.62;0.00;0.00;0.62;;;;;25.80;1.00;;;;;;2266764;61;1088;-82
2022/08/01 00:28:46;0.00;0.00;0.62;0.00;0.00;0.62;;;;;25.50;1.00;;;;;;2266016;61;1142;-82
2022/08/01 00:31:13;0.00;0.00;0.62;0.00;0.00;0.62;;;;;25.40;1.00;;;;;;2266339;61;1169;-82
2022/08/01 00:33:40;0.00;0.00;0.62;0.00;0.00;0.62;;;;;25.50;1.00;;;;;;2265547;61;1977;-82
2022/08/01 00:36:07;65596.00;0.22;114.15;0.00;0.00;0.62;;;;;25.60;1.00;;;;;;2265874;61;1652;-82
2022/08/01 00:38:34;0.00;0.00;0.62;0.00;0.00;0.62;;;;;25.50;1.00;;;;;;2266274;61;1115;-83
2022/08/01 00:41:01;89610.00;0.30;155.63;12346.00;0.04;22.01;;;;;25.30;1.00;;;;;;2266101;61;1126;-83
2022/08/01 00:43:28;4228.00;0.01;7.95;0.00;0.00;0.62;;;;;25.30;1.00;;;;;;2265896;61;1263;-82
2022/08/01 00:45:56;0.00;0.00;0.62;0.00;0.00;0.62;;;;;25.20;1.00;;;;;;2266215;61;1228;-83
2022/08/01 00:48:23;0.00;0.00;0.62;0.00;0.00;0.62;;;;;25.10;1.00;;;;;;2266137;61;1158;-82
2022/08/01 00:50:51;20027.00;0.07;35.32;0.00;0.00;0.62;;;;;25.20;1.00;;;;;;2265979;61;1119;-83
2022/08/01 00:53:18;0.00;0.00;0.62;0.00;0.00;0.62;;;;;25.20;1.00;;;;;;2265994;61;1938;-82
2022/08/01 00:55:45;0.00;0.00;0.62;0.00;0.00;0.62;;;;;25.20;1.00;;;;;;2266054;61;1147;-83
2022/08/01 00:58:12;0.00;0.00;0.62;0.00;0.00;0.62;;;;;25.20;1.00;;;;;;2266062;61;1138;-82
2022/08/01 01:00:38;0.00;0.00;0.62;0.00;0.00;0.62;;;;;25.10;1.00;;;;;;2272136;61;1076;-84
2022/08/01 01:03:07;39969.00;0.13;69.83;0.00;0.00;0.62;;;;;25.10;1.00;;;;;;2267338;61;1276;-81
2022/08/01 01:05:46;0.00;0.00;0.62;0.00;0.00;0.62;;;;;25.10;1.00;;;;;;2266664;61;1128;-81
2022/08/01 01:08:20;102408.00;0.34;177.73;0.00;0.00;0.62;;;;;25.00;1.00;;;;;;2266545;61;1529;-81
2022/08/01 01:10:55;0.00;0.00;0.62;0.00;0.00;0.62;;;;;25.00;1.00;;;;;;2266438;61;1231;-81
2022/08/01 01:13:32;0.00;0.00;0.62;0.00;0.00;0.62;;;;;24.90;1.00;;;;;;2266719;61;2030;-82
2022/08/01 01:16:05;0.00;0.00;0.62;0.00;0.00;0.62;;;;;24.90;1.00;;;;;;2267012;61;1155;-82
2022/08/01 01:18:38;0.00;0.00;0.62;0.00;0.00;0.62;;;;;24.80;1.00;;;;;;2266540;61;1242;-82
2022/08/01 01:21:17;0.00;0.00;0.62;0.00;0.00;0.62;;;;;24.90;1.00;;;;;;2269911;61;1168;-81
2022/08/01 01:24:03;0.00;0.00;0.62;0.00;0.00;0.62;;;;;24.90;1.00;;;;;;2272505;61;1318;-83
2022/08/01 01:26:39;0.00;0.00;0.62;0.00;0.00;0.62;;;;;25.00;1.00;;;;;;2272600;61;1247;-82
2022/08/01 01:29:16;0.00;0.00;0.62;0.00;0.00;0.62;;;;;25.00;1.00;;;;;;2272613;61;1111;-83
2022/08/01 01:31:48;0.00;0.00;0.62;0.00;0.00;0.62;;;;;25.00;1.00;;;;;;2272545;61;2134;-83
2022/08/01 01:34:20;83220.00;0.28;144.60;0.00;0.00;0.62;;;;;24.80;1.00;;;;;;2272555;61;1454;-83
2022/08/01 01:36:50;0.00;0.00;0.62;0.00;0.00;0.62;;;;;24.90;1.00;;;;;;2272612;61;1083;-83
2022/08/01 01:39:19;0.00;0.00;0.62;0.00;0.00;0.62;;;;;24.90;1.00;;;;;;2272484;61;1089;-83
2022/08/01 01:41:49;0.00;0.00;0.62;0.00;0.00;0.62;;;;;25.10;1.00;;;;;;2272081;61;1166;-82
2022/08/01 01:44:19;0.00;0.00;0.62;0.00;0.00;0.62;;;;;25.20;1.00;;;;;;2266305;61;1355;-82
2022/08/01 01:46:48;0.00;0.00;0.62;0.00;0.00;0.62;;;;;25.10;1.00;;;;;;2266500;61;1236;-82
2022/08/01 01:49:16;24745.00;0.08;43.49;0.00;0.00;0.62;;;;;25.10;1.00;;;;;;2266133;61;1183;-82
2022/08/01 01:51:44;0.00;0.00;0.62;0.00;0.00;0.62;;;;;25.00;1.00;;;;;;2266070;61;1117;-83
2022/08/01 01:54:12;0.00;0.00;0.62;0.00;0.00;0.62;;;;;24.90;1.00;;;;;;2266033;61;2013;-82
2022/08/01 01:56:49;0.00;0.00;0.62;0.00;0.00;0.62;;;;;24.60;1.00;;;;;;2265982;61;1120;-82
2022/08/01 01:59:20;95835.00;0.32;166.38;23858.00;0.08;41.95;;;;;24.50;1.00;;;;;;2266790;61;1132;-82
2022/08/01 02:01:50;115451.00;0.38;200.23;45693.00;0.15;79.74;;;;;24.50;1.00;;;;;;2266487;61;1116;-81
2022/08/01 02:04:18;0.00;0.00;0.62;0.00;0.00;0.62;;;;;24.40;1.00;;;;;;2266251;61;1282;-81
2022/08/01 02:06:47;0.00;0.00;0.62;0.00;0.00;0.62;;;;;24.30;1.00;;;;;;2266199;61;1110;-82
2022/08/01 02:09:18;0.00;0.00;0.62;0.00;0.00;0.62;;;;;24.30;1.00;;;;;;2266048;61;1259;-82
2022/08/01 02:11:46;0.00;0.00;0.62;0.00;0.00;0.62;;;;;24.20;1.00;;;;;;2268542;61;1047;-82
2022/08/01 02:14:15;0.00;0.00;0.62;0.00;0.00;0.62;;;;;24.20;1.00;;;;;;2271587;61;1946;-82
2022/08/01 02:16:47;46259.00;0.15;80.72;0.00;0.00;0.62;;;;;24.40;1.00;;;;;;2272393;61;1434;-83
2022/08/01 02:19:14;0.00;0.00;0.62;0.00;0.00;0.62;;;;;24.30;1.00;;;;;;2272278;61;1719;-82
2022/08/01 02:21:45;94856.00;0.32;164.69;28794.00;0.10;50.50;;;;;24.20;1.00;;;;;;2266038;61;1104;-82
2022/08/01 02:24:28;0.00;0.00;0.62;0.00;0.00;0.62;;;;;24.30;1.00;;;;;;2266113;61;1352;-82
2022/08/01 02:27:05;0.00;0.00;0.62;0.00;0.00;0.62;;;;;24.30;1.00;;;;;;2265838;61;1100;-81
2022/08/01 02:29:40;84234.00;0.28;146.35;0.00;0.00;0.62;;;;;24.30;1.00;;;;;;2265801;61;1126;-82
2022/08/01 02:32:12;40721.00;0.14;71.14;0.00;0.00;0.62;;;;;24.30;1.00;;;;;;2265942;61;1013;-82
2022/08/01 02:34:41;43837.00;0.15;76.53;0.00;0.00;0.62;;;;;24.00;1.00;;;;;;2265583;61;1477;-82
2022/08/01 02:37:10;0.00;0.00;0.62;0.00;0.00;0.62;;;;;24.00;1.00;;;;;;2265875;61;1041;-82
2022/08/01 02:39:38;0.00;0.00;0.62;0.00;0.00;0.62;;;;;24.20;1.00;;;;;;2265842;61;970;-82
2022/08/01 02:42:08;43919.00;0.15;76.67;0.00;0.00;0.62;;;;;24.20;1.00;;;;;;2266683;61;1101;-82
2022/08/01 02:44:40;0.00;0.00;0.62;0.00;0.00;0.62;;;;;24.30;1.00;;;;;;2266577;61;1801;-81
2022/08/01 02:47:07;0.00;0.00;0.62;0.00;0.00;0.62;;;;;24.20;1.00;;;;;;2265941;61;1079;-82
2022/08/01 02:49:39;20720.00;0.07;36.52;0.00;0.00;0.62;;;;;24.20;1.00;;;;;;2265791;61;1175;-83
2022/08/01 02:52:11;0.00;0.00;0.62;0.00;0.00;0.62;;;;;24.10;1.00;;;;;;2271025;61;1171;-82
2022/08/01 02:54:39;0.00;0.00;0.62;0.00;0.00;0.62;;;;;24.20;1.00;;;;;;2272689;61;2005;-82
2022/08/01 02:57:08;0.00;0.00;0.62;0.00;0.00;0.62;;;;;24.00;1.00;;;;;;2268095;61;1132;-83
2022/08/01 02:59:38;0.00;0.00;0.62;0.00;0.00;0.62;;;;;24.10;1.00;;;;;;2265950;61;1070;-82
2022/08/01 03:02:07;0.00;0.00;0.62;0.00;0.00;0.62;;;;;24.20;1.00;;;;;;2266451;61;1105;-82
2022/08/01 03:04:38;0.00;0.00;0.62;0.00;0.00;0.62;;;;;24.10;1.00;;;;;;2266186;61;1331;-83
2022/08/01 03:07:08;101551.00;0.34;176.25;0.00;0.00;0.62;;;;;24.00;1.00;;;;;;2266167;61;1164;-82
2022/08/01 03:09:39;0.00;0.00;0.62;0.00;0.00;0.62;;;;;23.90;1.00;;;;;;2266146;61;1167;-82
2022/08/01 03:12:13;0.00;0.00;0.62;0.00;0.00;0.62;;;;;23.80;1.00;;;;;;2266169;61;1160;-83
2022/08/01 03:14:43;58784.00;0.20;102.37;0.00;0.00;0.62;;;;;23.70;1.00;;;;;;2266051;61;1940;-82
2022/08/01 03:17:11;0.00;0.00;0.62;0.00;0.00;0.62;;;;;23.90;1.00;;;;;;2266470;61;1114;-82
2022/08/01 03:19:40;0.00;0.00;0.62;0.00;0.00;0.62;;;;;23.80;1.00;;;;;;2266368;61;1124;-82
2022/08/01 03:22:09;0.00;0.00;0.62;0.00;0.00;0.62;;;;;23.90;1.00;;;;;;2266190;61;1267;-81
2022/08/01 03:24:38;0.00;0.00;0.62;0.00;0.00;0.62;;;;;23.90;1.00;;;;;;2265833;61;1447;-81
2022/08/01 03:27:08;21338.00;0.07;37.59;0.00;0.00;0.62;;;;;24.00;1.00;;;;;;2266439;61;1175;-81
2022/08/01 03:29:36;0.00;0.00;0.62;0.00;0.00;0.62;;;;;24.10;1.00;;;;;;2272316;61;1573;-84
2022/08/01 03:32:05;0.00;0.00;0.62;0.00;0.00;0.62;;;;;24.10;1.00;;;;;;2267307;61;1103;-81
2022/08/01 03:34:32;0.00;0.00;0.62;0.00;0.00;0.62;;;;;24.10;1.00;;;;;;2265781;61;2029;-81
2022/08/01 03:37:06;0.00;0.00;0.62;0.00;0.00;0.62;;;;;24.10;1.00;;;;;;2265906;61;1160;-82
2022/08/01 03:39:39;0.00;0.00;0.62;0.00;0.00;0.62;;;;;24.00;1.00;;;;;;2265474;61;1290;-83
2022/08/01 03:42:15;0.00;0.00;0.62;0.00;0.00;0.62;;;;;23.80;1.00;;;;;;2265961;61;1149;-83
2022/08/01 03:44:47;18409.00;0.06;32.51;0.00;0.00;0.62;;;;;24.00;1.00;;;;;;2266064;61;1457;-83
2022/08/01 03:47:17;0.00;0.00;0.62;0.00;0.00;0.62;;;;;23.80;1.00;;;;;;2266305;61;1108;-83
2022/08/01 03:49:47;34820.00;0.12;60.93;0.00;0.00;0.62;;;;;23.80;1.00;;;;;;2266286;61;1122;-83
2022/08/01 03:52:16;0.00;0.00;0.62;0.00;0.00;0.62;;;;;23.80;1.00;;;;;;2266490;61;1134;-83
2022/08/01 03:54:48;72922.00;0.24;126.81;0.00;0.00;0.62;;;;;23.70;1.00;;;;;;2266429;61;1944;-83
2022/08/01 03:57:16;77521.00;0.26;134.75;0.00;0.00;0.62;;;;;23.60;1.00;;;;;;2266381;61;1155;-83
2022/08/01 03:59:44;0.00;0.00;0.62;0.00;0.00;0.62;;;;;23.50;1.00;;;;;;2266094;61;1103;-83
2022/08/01 04:02:14;0.00;0.00;0.62;0.00;0.00;0.62;;;;;23.60;1.00;;;;;;2266172;61;1148;-83
2022/08/01 04:04:42;13674.00;0.05;24.31;0.00;0.00;0.62;;;;;23.60;1.00;;;;;;2266211;61;1381;-83
2022/08/01 04:07:24;0.00;0.00;0.62;0.00;0.00;0.62;;;;;23.90;1.00;;;;;;2265853;61;1145;-83
2022/08/01 04:09:51;56621.00;0.19;98.64;0.00;0.00;0.62;;;;;24.10;1.00;;;;;;2265486;61;1271;-83
2022/08/01 04:12:18;0.00;0.00;0.62;0.00;0.00;0.62;;;;;24.10;1.00;;;;;;2265950;61;1147;-82
2022/08/01 04:14:45;0.00;0.00;0.62;0.00;0.00;0.62;;;;;24.10;1.00;;;;;;2265944;61;1960;-84
2022/08/01 04:17:12;0.00;0.00;0.62;0.00;0.00;0.62;;;;;24.00;1.00;;;;;;2266228;61;1125;-83
2022/08/01 04:19:39;113928.00;0.38;197.61;32500.00;0.11;56.91;;;;;23.90;1.00;;;;;;2266559;61;1113;-82
2022/08/01 04:22:07;0.00;0.00;0.62;0.00;0.00;0.62;;;;;23.70;1.00;;;;;;2266075;61;1153;-82
2022/08/01 04:24:37;53961.00;0.18;94.04;0.00;0.00;0.62;;;;;23.90;1.00;;;;;;2266047;61;1363;-82
2022/08/01 04:27:09;0.00;0.00;0.62;0.00;0.00;0.62;;;;;23.80;1.00;;;;;;2265907;61;1282;-82
2022/08/01 04:29:39;0.00;0.00;0.62;0.00;0.00;0.62;;;;;23.70;1.00;;;;;;2266226;61;1124;-82
2022/08/01 04:32:09;0.00;0.00;0.62;0.00;0.00;0.62;;;;;23.70;1.00;;;;;;2266116;61;1351;-81
2022/08/01 04:34:40;232919.00;0.78;402.57;38190.00;0.13;66.76;;;;;23.50;1.00;;;;;;2265595;61;2026;-82
2022/08/01 04:37:10;0.00;0.00;0.62;0.00;0.00;0.62;;;;;23.40;1.00;;;;;;2265393;61;1131;-83
2022/08/01 04:39:42;50595.00;0.17;88.22;0.00;0.00;0.62;;;;;23.40;1.00;;;;;;2265537;61;1243;-82
2022/08/01 04:42:10;0.00;0.00;0.62;0.00;0.00;0.62;;;;;23.40;1.00;;;;;;2268046;61;1162;-83
2022/08/01 04:44:38;50752.00;0.17;88.49;0.00;0.00;0.62;;;;;23.60;1.00;;;;;;2269905;61;1282;-83
2022/08/01 04:47:07;0.00;0.00;0.62;0.00;0.00;0.62;;;;;23.50;1.00;;;;;;2265528;61;1157;-83
2022/08/01 04:49:35;31026.00;0.10;54.36;0.00;0.00;0.62;;;;;23.60;1.00;;;;;;2265820;61;1095;-81
2022/08/01 04:52:02;0.00;0.00;0.62;0.00;0.00;0.62;;;;;23.70;1.00;;;;;;2265772;61;1119;-82
2022/08/01 04:54:33;0.00;0.00;0.62;0.00;0.00;0.62;;;;;23.70;1.00;;;;;;2265375;61;1930;-83
2022/08/01 04:57:01;21197.00;0.07;37.34;0.00;0.00;0.62;;;;;24.10;1.00;;;;;;2266086;61;1096;-82
2022/08/01 04:59:40;166492.00;0.55;288.22;38222.00;0.13;66.81;;;;;24.10;1.00;;;;;;2266419;61;1135;-81
2022/08/01 05:02:08;0.00;0.00;0.62;0.00;0.00;0.62;;;;;23.80;1.00;;;;;;2267149;61;1057;-81
2022/08/01 05:04:35;0.00;0.00;0.62;0.00;0.00;0.62;;;;;23.70;1.00;;;;;;2265233;61;1255;-82
2022/08/01 05:07:02;0.00;0.00;0.62;0.00;0.00;0.62;;;;;23.80;1.00;;;;;;2265481;61;1164;-81
2022/08/01 05:09:29;0.00;0.00;0.62;0.00;0.00;0.62;;;;;23.90;1.00;;;;;;2265231;61;1192;-81
2022/08/01 05:11:58;0.00;0.00;0.62;0.00;0.00;0.62;;;;;24.10;1.00;;;;;;2265303;61;1474;-82
2022/08/01 05:14:26;0.00;0.00;0.62;0.00;0.00;0.62;;;;;24.30;1.00;;;;;;2265471;61;2010;-82
2022/08/01 05:16:53;0.00;0.00;0.62;0.00;0.00;0.62;;;;;24.50;1.00;;;;;;2265850;61;1175;-81
2022/08/01 05:19:20;0.00;0.00;0.62;0.00;0.00;0.62;;;;;24.50;1.00;;;;;;2266120;61;1162;-82
2022/08/01 05:21:47;0.00;0.00;0.62;0.00;0.00;0.62;;;;;24.60;1.00;;;;;;2265608;61;1232;-82
2022/08/01 05:24:14;0.00;0.00;0.62;0.00;0.00;0.62;;;;;24.90;1.00;;;;;;2265518;61;1247;-82
2022/08/01 05:26:41;107240.00;0.36;186.07;39895.00;0.13;69.71;;;;;24.90;1.00;;;;;;2265709;61;1096;-82
2022/08/01 05:29:08;0.00;0.00;0.62;0.00;0.00;0.62;;;;;25.20;1.00;;;;;;2266166;61;1260;-82
2022/08/01 05:31:36;0.00;0.00;0.62;0.00;0.00;0.62;;;;;25.10;1.00;;;;;;2265628;61;1158;-83
2022/08/01 05:34:03;5765.00;0.02;10.61;0.00;0.00;0.62;;;;;24.80;1.00;;;;;;2265871;61;2236;-82
2022/08/01 05:36:30;0.00;0.00;0.62;0.00;0.00;0.62;;;;;24.70;1.00;;;;;;2266054;61;1065;-82
2022/08/01 05:38:57;0.00;0.00;0.62;0.00;0.00;0.62;;;;;24.80;1.00;;;;;;2266706;61;1179;-81
2022/08/01 05:41:24;0.00;0.00;0.62;0.00;0.00;0.62;;;;;24.80;1.00;;;;;;2271163;61;1151;-82
2022/08/01 05:43:50;0.00;0.00;0.62;0.00;0.00;0.62;;;;;25.00;1.00;;;;;;2270526;61;1289;-83
2022/08/01 05:46:17;0.00;0.00;0.62;0.00;0.00;0.62;;;;;25.70;1.00;;;;;;2265748;61;1060;-83
2022/08/01 05:48:45;43474.00;0.14;75.90;0.00;0.00;0.62;;;;;26.50;1.00;;;;;;2265373;61;1099;-83
2022/08/01 05:51:12;0.00;0.00;0.62;0.00;0.00;0.62;;;;;26.90;1.00;;;;;;2265664;61;1180;-82
2022/08/01 05:53:39;0.00;0.00;0.62;0.00;0.00;0.62;;;;;27.20;1.00;;;;;;2272255;61;1918;-83
2022/08/01 05:56:06;0.00;0.00;0.62;0.00;0.00;0.62;;;;;27.10;1.00;;;;;;2272353;61;1060;-84
2022/08/01 05:58:33;44875.00;0.15;78.32;0.00;0.00;0.62;;;;;27.40;1.00;;;;;;2272465;61;1432;-83
2022/08/01 06:01:00;56851.00;0.19;99.03;0.00;0.00;0.62;;;;;27.70;1.00;;;;;;2267612;61;1185;-82
2022/08/01 06:03:30;43973.00;0.15;76.76;0.00;0.00;0.62;;;;;27.80;1.00;;;;;;2266002;61;1354;-83
2022/08/01 06:05:59;39484.00;0.13;69.00;0.00;0.00;0.62;;;;;27.60;1.00;;;;;;2266108;61;1767;-82
2022/08/01 06:08:26;0.00;0.00;0.62;0.00;0.00;0.62;;;;;28.00;1.00;;;;;;2265294;61;1137;-82
2022/08/01 06:10:53;0.00;0.00;0.62;0.00;0.00;0.62;;;;;28.80;1.00;;;;;;2265008;61;1209;-82
2022/08/01 06:13:20;0.00;0.00;0.62;0.00;0.00;0.62;;;;;29.40;1.00;;;;;;2264705;61;1920;-83
2022/08/01 06:15:47;0.00;0.00;0.62;0.00;0.00;0.62;;;;;29.40;1.00;;;;;;2264420;61;1176;-82
2022/08/01 06:18:14;0.00;0.00;0.62;0.00;0.00;0.62;;;;;29.10;1.00;;;;;;2264977;61;1150;-82
2022/08/01 06:20:41;1626.00;0.01;3.44;0.00;0.00;0.62;;;;;28.80;1.00;;;;;;2264894;61;1220;-83
2022/08/01 06:23:10;5999.00;0.02;11.02;0.00;0.00;0.62;;;;;28.40;1.00;;;;;;2265000;61;1333;-82
2022/08/01 06:25:37;0.00;0.00;0.62;0.00;0.00;0.62;;;;;28.40;1.00;;;;;;2264591;61;1189;-82
2022/08/01 06:28:04;0.00;0.00;0.62;0.00;0.00;0.62;;;;;28.50;1.00;;;;;;2264883;61;1126;-82
2022/08/01 06:30:31;10727.00;0.04;19.21;0.00;0.00;0.62;;;;;28.30;1.00;;;;;;2265435;61;1120;-83
2022/08/01 06:32:59;0.00;0.00;0.62;0.00;0.00;0.62;;;;;28.50;1.00;;;;;;2265129;61;1331;-82
2022/08/01 06:35:28;62100.00;0.21;108.11;0.00;0.00;0.62;;;;;28.30;1.00;;;;;;2265121;61;1954;-83
2022/08/01 06:37:55;0.00;0.00;0.62;0.00;0.00;0.62;;;;;28.70;1.00;;;;;;2264987;61;1154;-82
2022/08/01 06:40:23;302522.00;1.01;522.26;78143.00;0.26;135.83;;;;;29.10;1.00;;;;;;2265141;61;1098;-82
2022/08/01 06:42:50;7907.00;0.03;14.32;0.00;0.00;0.62;;;;;29.20;1.00;;;;;;2264942;61;1280;-83
2022/08/01 06:45:18;0.00;0.00;0.62;0.00;0.00;0.62;;;;;29.20;1.00;;;;;;2264951;61;1059;-83
2022/08/01 06:47:46;0.00;0.00;0.62;0.00;0.00;0.62;;;;;29.00;1.00;;;;;;2265513;61;1190;-84
2022/08/01 06:50:14;69051.00;0.23;120.12;0.00;0.00;0.62;;;;;28.90;1.00;;;;;;2265220;61;1097;-83
2022/08/01 06:52:41;0.00;0.00;0.62;0.00;0.00;0.62;;;;;29.30;1.00;;;;;;2265001;61;1224;-83
2022/08/01 06:55:09;14218.00;0.05;25.26;0.00;0.00;0.62;;;;;30.00;1.00;;;;;;2265223;61;1951;-83
2022/08/01 06:57:45;15270.00;0.05;27.08;0.00;0.00;0.62;;;;;30.70;1.00;;;;;;2265204;61;1172;-83
2022/08/01 07:00:13;21495.00;0.07;37.86;0.00;0.00;0.62;;;;;31.00;1.00;;;;;;2265120;61;1131;-83
2022/08/01 07:02:40;69396.00;0.23;120.72;0.00;0.00;0.62;;;;;30.90;1.00;;;;;;2265151;61;1148;-83
2022/08/01 07:05:09;0.00;0.00;0.62;0.00;0.00;0.62;;;;;30.70;1.00;;;;;;2265130;61;1446;-82
2022/08/01 07:07:35;28832.00;0.10;50.56;0.00;0.00;0.62;;;;;31.00;1.00;;;;;;2271345;61;1045;-81
2022/08/01 07:10:03;0.00;0.00;0.62;0.00;0.00;0.62;;;;;30.90;1.00;;;;;;2265723;61;1042;-82
2022/08/01 07:12:29;15485.00;0.05;27.45;0.00;0.00;0.62;;;;;30.90;1.00;;;;;;2264674;61;1231;-82
2022/08/01 07:14:58;104966.00;0.35;182.14;39307.00;0.13;68.69;;;;;30.90;1.00;;;;;;2264715;61;2028;-81
2022/08/01 07:17:24;251688.00;0.84;434.85;118979.00;0.40;206.32;;;;;31.50;1.00;;;;;;2264192;61;1075;-81
2022/08/01 07:19:53;813.00;0.00;2.03;0.00;0.00;0.62;;;;;32.80;1.00;;;;;;2265210;61;1157;-81
2022/08/01 07:22:20;0.00;0.00;0.62;0.00;0.00;0.62;;;;;34.30;1.00;;;;;;2265372;61;1141;-81
2022/08/01 07:24:47;0.00;0.00;0.62;0.00;0.00;0.62;;;;;35.20;1.00;;;;;;2265904;61;1365;-82
2022/08/01 07:27:14;0.00;0.00;0.62;0.00;0.00;0.62;;;;;35.60;1.00;;;;;;2265627;61;1169;-83
2022/08/01 07:29:41;8057.00;0.03;14.58;0.00;0.00;0.62;;;;;36.30;1.00;;;;;;2265334;61;1171;-83
2022/08/01 07:32:09;0.00;0.00;0.62;0.00;0.00;0.62;;;;;36.60;1.00;;;;;;2265712;61;1114;-82
2022/08/01 07:34:36;0.00;0.00;0.62;0.00;0.00;0.62;;;;;37.00;1.00;;;;;;2264794;61;2014;-83
2022/08/01 07:37:03;0.00;0.00;0.62;0.00;0.00;0.62;;;;;38.00;1.00;;;;;;2265190;61;1159;-82
2022/08/01 07:39:30;87187.00;0.29;151.45;0.00;0.00;0.62;;;;;38.60;1.00;;;;;;2265329;61;1223;-83
2022/08/01 07:41:57;129256.00;0.43;224.05;0.00;0.00;0.62;;;;;38.20;1.00;;;;;;2265569;61;1153;-83
2022/08/01 07:44:24;63927.00;0.21;111.26;0.00;0.00;0.62;;;;;38.30;1.00;;;;;;2265688;61;1355;-81
2022/08/01 07:46:51;0.00;0.00;0.62;0.00;0.00;0.62;;;;;38.20;1.00;;;;;;2267707;61;1136;-81
2022/08/01 07:49:21;90729.00;0.30;157.57;8865.00;0.03;15.98;;;;;38.80;1.00;;;;;;2266004;61;1138;-83
2022/08/01 07:51:48;47312.00;0.16;82.54;0.00;0.00;0.62;;;;;38.60;1.00;;;;;;2265816;61;1348;-83
2022/08/01 07:54:15;0.00;0.00;0.62;0.00;0.00;0.62;;;;;38.60;1.00;;;;;;2265503;61;1935;-81
2022/08/01 07:56:42;0.00;0.00;0.62;0.00;0.00;0.62;;;;;38.70;1.00;;;;;;2265837;61;1826;-83
2022/08/01 07:59:08;0.00;0.00;0.62;0.00;0.00;0.62;;;;;39.30;1.00;;;;;;2266347;61;1149;-83
2022/08/01 08:01:35;0.00;0.00;0.62;0.00;0.00;0.62;;;;;39.70;1.00;;;;;;2266229;61;1163;-85
2022/08/01 08:04:03;167225.00;0.56;289.49;37454.00;0.12;65.48;;;;;39.80;1.00;;;;;;2266706;61;1358;-83
2022/08/01 08:06:31;0.00;0.00;0.62;0.00;0.00;0.62;;;;;39.40;1.00;;;;;;2265934;61;1112;-84
2022/08/01 08:08:58;232883.00;0.78;402.51;104275.00;0.35;180.95;;;;;39.30;1.00;;;;;;2265954;61;1238;-84
2022/08/01 08:11:25;0.00;0.00;0.62;0.00;0.00;0.62;;;;;39.40;1.00;;;;;;2265882;61;1122;-83
2022/08/01 08:13:52;48014.00;0.16;83.75;0.00;0.00;0.62;;;;;39.70;1.00;;;;;;2265631;61;1284;-84
2022/08/01 08:16:20;0.00;0.00;0.62;0.00;0.00;0.62;;;;;39.60;1.00;;;;;;2266226;61;2021;-84
2022/08/01 08:18:47;0.00;0.00;0.62;0.00;0.00;0.62;;;;;39.30;1.00;;;;;;2267265;61;1121;-84
2022/08/01 08:21:14;0.00;0.00;0.62;0.00;0.00;0.62;;;;;39.50;1.00;;;;;;2270370;61;1084;-83
2022/08/01 08:26:41;159229.00;0.53;275.71;39831.00;0.13;69.60;;;;;39.60;1.00;;;;;;2259689;61;1603;-84
2022/08/01 08:29:08;208509.00;0.70;360.57;47504.00;0.16;82.87;;;;;39.00;1.00;;;;;;2259697;61;1125;-84
2022/08/01 08:31:35;160360.00;0.53;277.66;50300.00;0.17;87.71;;;;;38.60;1.00;;;;;;2255857;61;1569;-84
2022/08/01 08:34:02;426229.00;1.42;734.90;132343.00;0.44;229.37;;;;;38.80;1.00;;;;;;2254468;61;1375;-85
2022/08/01 08:36:29;179116.00;0.60;309.97;50881.00;0.17;88.71;;;;;38.30;1.00;;;;;;2254399;61;2017;-84
2022/08/01 08:38:57;207717.00;0.69;359.21;49964.00;0.17;87.12;;;;;37.80;1.00;;;;;;2255268;61;1146;-84
2022/08/01 08:41:24;169342.00;0.56;293.13;33257.00;0.11;58.22;;;;;37.60;1.00;;;;;;2259541;61;1144;-84
2022/08/01 08:43:51;193330.00;0.64;334.44;52774.00;0.18;91.98;;;;;37.20;1.00;;;;;;2259733;61;1299;-84
2022/08/01 08:46:19;159392.00;0.53;275.99;59656.00;0.20;103.88;;;;;37.50;1.00;;;;;;2253890;61;1042;-84
2022/08/01 08:48:47;163141.00;0.54;282.45;50112.00;0.17;87.38;;;;;37.50;1.00;;;;;;2253836;61;1113;-85
2022/08/01 08:51:17;199270.00;0.66;344.67;87511.00;0.29;152.01;;;;;37.30;1.00;;;;;;2254735;61;1219;-82
2022/08/01 08:53:46;169417.00;0.56;293.26;46929.00;0.16;81.87;;;;;37.50;1.00;;;;;;2253750;61;1376;-84
2022/08/01 08:56:15;169806.00;0.57;293.93;51620.00;0.17;89.99;;;;;37.20;1.00;;;;;;2254665;61;1928;-85
2022/08/01 08:58:45;157716.00;0.53;273.10;51067.00;0.17;89.03;;;;;37.50;1.00;;;;;;2268521;61;1138;-85
2022/08/01 09:01:14;164145.00;0.55;284.18;52015.00;0.17;90.67;;;;;37.60;1.00;;;;;;2268728;61;1108;-83
2022/08/01 09:03:41;179845.00;0.60;311.22;53934.00;0.18;93.99;;;;;37.20;1.00;;;;;;2266523;61;1324;-84
2022/08/01 09:06:08;167364.00;0.56;289.73;53460.00;0.18;93.17;;;;;36.80;1.00;;;;;;2269239;61;1068;-82
2022/08/01 09:08:35;243915.00;0.81;421.49;52690.00;0.18;91.84;;;;;36.70;1.00;;;;;;2267120;61;1104;-83
2022/08/01 09:11:02;176596.00;0.59;305.63;60348.00;0.20;105.08;;;;;36.50;1.00;;;;;;2267742;61;1149;-84
2022/08/01 09:13:30;162876.00;0.54;281.99;52768.00;0.18;91.97;;;;;37.20;1.00;;;;;;2267647;61;1270;-83
2022/08/01 09:15:58;164216.00;0.55;284.30;49382.00;0.16;86.12;;;;;37.00;1.00;;;;;;2269140;61;2015;-85
2022/08/01 09:18:31;163767.00;0.55;283.53;52083.00;0.17;90.79;;;;;37.20;1.00;;;;;;2270691;61;1587;-84
2022/08/01 09:21:17;168348.00;0.56;291.42;56387.00;0.19;98.23;;;;;37.50;1.00;;;;;;2268635;61;1235;-85
2022/08/01 09:23:47;225684.00;0.75;390.12;56401.00;0.19;98.25;;;;;36.30;1.00;;;;;;2268183;61;1538;-84
2022/08/01 09:26:15;163080.00;0.54;282.35;55182.00;0.18;96.15;;;;;35.70;1.00;;;;;;2268350;61;1113;-84
2022/08/01 09:28:45;165866.00;0.55;287.15;61612.00;0.21;107.26;;;;;35.60;1.00;;;;;;2271794;61;1176;-84
2022/08/01 09:31:14;185670.00;0.62;321.25;54613.00;0.18;95.16;;;;;35.30;1.00;;;;;;2271815;61;1560;-83
2022/08/01 09:33:52;188317.00;0.63;325.81;59919.00;0.20;104.34;;;;;35.20;1.00;;;;;;2269448;61;1388;-83
2022/08/01 09:36:21;165033.00;0.55;285.71;51082.00;0.17;89.06;;;;;35.30;1.00;;;;;;2269437;61;1952;-86
2022/08/01 09:38:48;341616.00;1.14;589.45;48842.00;0.16;85.18;;;;;35.30;1.00;;;;;;2267298;61;1084;-84
2022/08/01 09:41:15;187330.00;0.62;324.11;56145.00;0.19;97.81;;;;;35.00;1.00;;;;;;2270104;61;1171;-85
2022/08/01 09:43:50;225627.00;0.75;390.03;50390.00;0.17;87.86;;;;;34.60;1.00;;;;;;2270158;61;1311;-86
2022/08/01 09:46:17;167924.00;0.56;290.69;52302.00;0.17;91.17;;;;;34.40;1.00;;;;;;2271128;61;1153;-83
2022/08/01 09:48:57;299767.00;1.00;517.52;55620.00;0.19;96.90;;;;;34.20;1.00;;;;;;2270605;61;1176;-84
2022/08/01 09:51:33;184388.00;0.61;319.05;52993.00;0.18;92.36;;;;;33.80;1.00;;;;;;2267918;61;1146;-85
2022/08/01 09:54:00;298202.00;0.99;514.83;68520.00;0.23;119.20;;;;;34.20;1.00;;;;;;2270477;61;1408;-87
2022/08/01 09:56:27;305548.00;1.02;527.46;55785.00;0.19;97.19;;;;;34.10;1.00;;;;;;2268219;61;2002;-84
2022/08/01 09:58:58;180858.00;0.60;312.97;41679.00;0.14;72.79;;;;;34.30;1.00;;;;;;2269189;61;1135;-84
2022/08/01 10:01:25;165802.00;0.55;287.04;55114.00;0.18;96.03;;;;;34.40;1.00;;;;;;2266225;61;1163;-82
2022/08/01 10:04:10;167936.00;0.56;290.71;52598.00;0.18;91.68;;;;;34.20;1.00;;;;;;2266401;61;1366;-83
2022/08/01 10:06:38;222492.00;0.74;384.63;60764.00;0.20;105.80;;;;;34.20;1.00;;;;;;2267144;61;1126;-83
2022/08/01 10:09:05;1626.00;0.01;3.44;0.00;0.00;0.62;;;;;33.70;1.00;;;;;;2265825;61;1136;-83
2022/08/01 10:11:33;256319.00;0.85;442.82;44669.00;0.15;77.97;;;;;34.30;1.00;;;;;;2267301;61;1211;-84
2022/08/01 10:14:03;186398.00;0.62;322.51;57283.00;0.19;99.78;;;;;34.30;1.00;;;;;;2268403;61;1315;-82
2022/08/01 10:16:31;294488.00;0.98;508.44;65539.00;0.22;114.05;;;;;33.80;1.00;;;;;;2268752;61;2010;-84
2022/08/01 10:18:58;197580.00;0.66;341.76;61523.00;0.21;107.11;;;;;33.10;1.00;;;;;;2270033;61;1736;-87
2022/08/01 10:21:28;285199.00;0.95;492.48;63485.00;0.21;110.50;;;;;33.20;1.00;;;;;;2270991;61;1121;-84
2022/08/01 10:23:57;288708.00;0.96;498.51;68726.00;0.23;119.56;;;;;33.40;1.00;;;;;;2271524;61;1412;-87
2022/08/01 10:26:27;207826.00;0.69;359.39;50644.00;0.17;88.30;;;;;33.40;1.00;;;;;;2271202;61;1158;-84
2022/08/01 10:28:55;163243.00;0.54;282.63;57252.00;0.19;99.73;;;;;33.60;1.00;;;;;;2271145;61;1165;-85